Nearby METAR Reports

 

KCPC - Whiteville, North Carolina, USA
Distance from station: NNE 17mi, 28km
Updated: 12/08/2022 6:55pm
Overcast
Overcast
 Wind from calm
Wind: Calm
Temperature: 63°F , 17°C
Dew Point: 59°F , 15°C
Humidity: 88%
Barometer: 30.18 inHg , 1022 hPa
Clouds: Overcast
Visibility: 10 miles , 16 km
Cloud details: Overcast 2200 ft
2022/12/08 23:55 KCPC 082355Z AUTO 00000KT 10SM OVC022 17/15 A3018 RMK AO2 T01730152 10186 20173
KCRE - North Myrtle Bea, South Carolina, USA
Distance from station: SSE 19mi, 31km
Updated: 12/08/2022 6:53pm
Overcast
Overcast
 Wind from calm
Wind: Calm
Temperature: 61°F , 16°C
Dew Point: 59°F , 15°C
Humidity: 94%
Barometer: 30.17 inHg , 1021.7 hPa
Clouds: Overcast
Visibility: 9 miles , 14 km
Cloud details: Overcast 1500 ft
2022/12/08 23:53 KCRE 082353Z 00000KT 9SM OVC015 16/15 A3017 RMK AO1 SLP217 T01560150 10194 20150 53007
 
KHYW - Conway-Horry Cty, South Carolina, USA
Distance from station: SW 22mi, 35km
Updated: 12/08/2022 6:55pm
Overcast
Overcast
 Wind from ENE
Wind: ENE 3 mph , 6 km/h
Temperature: 63°F , 17°C
Dew Point: 59°F , 15°C
Humidity: 88%
Barometer: 30.17 inHg , 1021.7 hPa
Clouds: Overcast
Visibility: 10 miles , 16 km
Cloud details: Overcast 1500 ft
2022/12/08 23:55 KHYW 082355Z AUTO 06003KT 10SM OVC015 17/15 A3017 RMK AO2
KMAO - Marion, South Carolina, USA
Distance from station: WNW 28mi, 45km
Updated: 12/08/2022 6:55pm
Overcast
Overcast
 Wind from E
Wind: E 3 mph , 6 km/h
Temperature: 63°F , 17°C
Dew Point: 59°F , 15°C
Humidity: 88%
Barometer: 30.17 inHg , 1021.7 hPa
Clouds: Overcast
Visibility: 10 miles , 16 km
Cloud details: Overcast 2100 ft
2022/12/08 23:55 KMAO 082355Z AUTO 10003KT 10SM OVC021 17/15 A3017 RMK AO2
 
KMYR - Myrtle Beach, South Carolina, USA
Distance from station: S 28mi, 45km
Updated: 12/08/2022 6:56pm
Overcast
Overcast
 Wind from calm
Wind: Calm
Temperature: 63°F , 17°C
Dew Point: 63°F , 17°C
Humidity: 100%
Barometer: 30.18 inHg , 1022 hPa
Clouds: Overcast
Visibility: 10 miles , 16 km
Cloud details: Overcast 2800 ft
2022/12/08 23:56 KMYR 082356Z 00000KT 10SM OVC028 17/17 A3018 RMK AO2 SLP219 T01720167 10200 20167 50003
KLBT - Lumberton, North Carolina, USA
Distance from station: NNW 39mi, 62km
Updated: 12/08/2022 6:56pm
Overcast
Overcast
 Wind from calm
Wind: Calm
Temperature: 64°F , 18°C
Dew Point: 59°F , 15°C
Humidity: 83%
Barometer: 30.16 inHg , 1021.3 hPa
Clouds: Overcast
Visibility: 10 miles , 16 km
Cloud details: Overcast 2600 ft
2022/12/08 23:56 KLBT 082356Z AUTO 00000KT 10SM OVC026 18/15 A3016 RMK AO2 SLP213 T01780150 10194 20178 50006 TSNO
 
KSUT - Southport, North Carolina, USA
Distance from station: E 46mi, 74km
Updated: 12/08/2022 6:55pm
Clear
Clear
 Wind from calm
Wind: Calm
Temperature: 59°F , 15°C
Dew Point: 55°F , 13°C
Humidity: 88%
Barometer: 30.17 inHg , 1021.7 hPa
Clouds: Clear
Visibility: 10 miles , 16 km
2022/12/08 23:55 KSUT 082355Z AUTO 00000KT 10SM CLR 15/13 A3017 RMK AO2 T01500130 10190 20150
KFLO - Florence, South Carolina, USA
Distance from station: W 50mi, 81km
Updated: 12/08/2022 6:53pm
Clear
Clear
 Wind from E
Wind: E 6 mph , 9 km/h
Temperature: 63°F , 17°C
Dew Point: 57°F , 14°C
Humidity: 83%
Barometer: 30.15 inHg , 1021 hPa
Clouds: Clear
Visibility: 10 miles , 16 km
2022/12/08 23:53 KFLO 082353Z 09005KT 10SM CLR 17/14 A3015 RMK AO2 SLP207 T01670144 10217 20161 58002